createdAt,value
2017-04-30T00:00:26.788Z,76.40
2017-04-30T00:02:55.775Z,76.50
2017-04-30T00:05:24.994Z,76.30
2017-04-30T00:07:53.870Z,76.50
2017-04-30T00:10:22.737Z,76.00
2017-04-30T00:12:52.374Z,76.00
2017-04-30T00:15:21.253Z,75.90
2017-04-30T00:17:50.484Z,75.50
2017-04-30T00:20:19.359Z,75.40
2017-04-30T00:22:48.234Z,75.80
2017-04-30T00:25:17.393Z,75.70
2017-04-30T00:27:46.269Z,75.20
2017-04-30T00:30:15.143Z,75.80
2017-04-30T00:32:44.060Z,76.20
2017-04-30T00:35:13.024Z,75.50
2017-04-30T00:37:41.894Z,76.10
2017-04-30T00:40:10.802Z,75.30
2017-04-30T00:42:39.681Z,75.80
2017-04-30T00:45:08.556Z,77.10
2017-04-30T00:47:37.677Z,77.70
2017-04-30T00:50:06.553Z,77.60
2017-04-30T00:52:35.428Z,77.10
2017-04-30T00:55:04.544Z,76.30
2017-04-30T00:57:33.425Z,76.80
2017-04-30T01:00:02.296Z,77.00
2017-04-30T01:02:31.523Z,77.10
2017-04-30T01:05:00.408Z,76.70
2017-04-30T01:07:29.287Z,76.30
2017-04-30T01:09:58.290Z,76.50
2017-04-30T01:12:27.171Z,76.60
2017-04-30T01:14:56.046Z,76.90
2017-04-30T01:17:25.689Z,76.90
2017-04-30T01:19:54.574Z,77.10
2017-04-30T01:22:23.493Z,76.80
2017-04-30T01:24:52.361Z,76.70
2017-04-30T01:27:21.229Z,76.80
2017-04-30T01:29:50.142Z,76.60
2017-04-30T01:32:19.016Z,76.90
2017-04-30T01:34:47.906Z,76.70
2017-04-30T01:37:16.825Z,76.90
2017-04-30T01:39:45.705Z,76.50
2017-04-30T01:42:14.580Z,76.40
2017-04-30T01:44:43.753Z,76.40
2017-04-30T01:47:13.369Z,76.80
2017-04-30T01:49:42.246Z,77.20
2017-04-30T01:52:11.917Z,77.30
2017-04-30T01:54:40.794Z,76.90
2017-04-30T01:57:09.671Z,76.20
2017-04-30T01:59:38.581Z,76.00
2017-04-30T02:02:07.474Z,76.30
2017-04-30T02:04:36.365Z,76.20
2017-04-30T02:07:05.267Z,76.60
2017-04-30T02:09:34.140Z,76.60
2017-04-30T02:12:03.008Z,76.80
2017-04-30T02:14:31.927Z,77.30
2017-04-30T02:17:00.801Z,76.90
2017-04-30T02:19:29.677Z,76.40
2017-04-30T02:21:59.090Z,76.50
2017-04-30T02:24:27.964Z,77.20
2017-04-30T02:26:56.839Z,77.50
2017-04-30T02:29:26.490Z,76.40
2017-04-30T02:31:55.358Z,76.30
2017-04-30T02:34:24.235Z,75.60
2017-04-30T02:36:53.878Z,75.00
2017-04-30T02:39:22.755Z,76.00
2017-04-30T02:41:51.685Z,76.40
2017-04-30T02:44:20.557Z,76.50
2017-04-30T02:46:49.433Z,76.50
2017-04-30T02:49:18.350Z,76.00
2017-04-30T02:51:47.226Z,76.10
2017-04-30T02:54:16.106Z,76.60
2017-04-30T02:56:45.068Z,76.60
2017-04-30T02:59:14.689Z,76.00
2017-04-30T03:01:43.556Z,76.00
2017-04-30T03:04:13.209Z,76.50
2017-04-30T03:06:42.077Z,75.90
2017-04-30T03:09:10.958Z,76.00
2017-04-30T03:11:40.608Z,75.80
2017-04-30T03:14:09.484Z,76.20
2017-04-30T03:16:38.358Z,77.50
2017-04-30T03:19:07.268Z,77.90
2017-04-30T03:21:36.146Z,77.70
2017-04-30T03:24:05.025Z,77.30
2017-04-30T03:26:34.029Z,77.40
2017-04-30T03:29:02.907Z,77.30
2017-04-30T03:31:31.794Z,77.80
2017-04-30T03:34:00.704Z,76.60
2017-04-30T03:36:29.577Z,77.40
2017-04-30T03:39:10.440Z,76.70
2017-04-30T03:41:51.813Z,76.90
2017-04-30T03:44:33.221Z,76.40
2017-04-30T03:47:13.873Z,76.70
2017-04-30T03:49:55.358Z,76.80
2017-04-30T03:52:36.862Z,76.30
2017-04-30T03:55:17.794Z,76.30
2017-04-30T03:57:58.394Z,76.60
2017-04-30T04:00:39.048Z,76.20
2017-04-30T04:03:20.882Z,76.90
2017-04-30T04:06:01.405Z,76.60
2017-04-30T04:08:43.134Z,77.20
2017-04-30T04:11:23.690Z,77.20
2017-04-30T04:14:04.605Z,77.60
2017-04-30T04:16:45.345Z,77.90
2017-04-30T04:19:26.165Z,77.80
2017-04-30T04:22:07.556Z,78.10
2017-04-30T04:24:49.126Z,78.00
2017-04-30T04:27:29.918Z,77.50
2017-04-30T04:30:11.412Z,77.40
2017-04-30T04:32:52.023Z,77.80
2017-04-30T04:35:32.917Z,77.70
2017-04-30T04:38:13.681Z,77.50
2017-04-30T04:40:54.529Z,77.70
2017-04-30T04:43:35.362Z,77.60
2017-04-30T04:46:16.247Z,77.60
2017-04-30T04:48:57.073Z,77.60
2017-04-30T04:51:38.217Z,77.90
2017-04-30T04:54:19.012Z,77.60
2017-04-30T04:56:59.642Z,77.30
2017-04-30T04:59:40.344Z,77.20
2017-04-30T05:02:21.066Z,77.40
2017-04-30T05:05:01.744Z,76.60
2017-04-30T05:07:42.667Z,75.40
2017-04-30T05:10:24.125Z,75.20
2017-04-30T05:13:04.982Z,74.70
2017-04-30T05:15:45.814Z,74.10
2017-04-30T05:18:27.115Z,74.30
2017-04-30T05:21:07.745Z,72.10
2017-04-30T05:23:49.354Z,72.50
2017-04-30T05:26:30.194Z,72.60
2017-04-30T05:29:11.078Z,71.30
2017-04-30T05:31:52.536Z,70.80
2017-04-30T05:34:33.222Z,70.50
2017-04-30T05:37:13.850Z,69.30
2017-04-30T05:39:54.725Z,69.50
2017-04-30T05:42:35.382Z,69.20
2017-04-30T05:45:16.089Z,68.40
2017-04-30T05:47:56.812Z,68.00
2017-04-30T05:50:37.807Z,68.00
2017-04-30T05:53:18.577Z,68.10
2017-04-30T05:55:59.446Z,67.60
2017-04-30T05:58:40.191Z,67.90
2017-04-30T06:01:21.376Z,67.30
2017-04-30T06:04:02.068Z,67.30
2017-04-30T06:06:43.231Z,66.40
2017-04-30T06:09:24.056Z,66.20
2017-04-30T06:12:05.581Z,67.80
2017-04-30T06:14:46.357Z,67.10
2017-04-30T06:17:26.930Z,64.60
2017-04-30T06:20:07.905Z,63.80
2017-04-30T06:22:48.864Z,64.30
2017-04-30T06:25:29.751Z,63.60
2017-04-30T06:28:10.572Z,62.70
2017-04-30T06:30:52.168Z,63.10
2017-04-30T06:33:32.912Z,64.30
2017-04-30T06:36:14.632Z,64.70
2017-04-30T06:38:55.465Z,64.00
2017-04-30T06:41:36.328Z,62.40
2017-04-30T06:44:16.970Z,62.70
2017-04-30T06:46:57.557Z,62.40
2017-04-30T06:49:38.332Z,61.10
2017-04-30T06:52:18.982Z,61.00
2017-04-30T06:54:59.810Z,59.00
2017-04-30T06:57:40.392Z,58.60
2017-04-30T07:00:21.119Z,59.70
2017-04-30T07:03:02.708Z,59.40
2017-04-30T07:05:44.577Z,59.10
2017-04-30T07:08:25.089Z,58.70
2017-04-30T07:11:05.721Z,59.40
2017-04-30T07:13:47.202Z,58.80
2017-04-30T07:16:27.877Z,56.90
2017-04-30T07:19:09.310Z,57.20
2017-04-30T07:21:50.157Z,57.20
2017-04-30T07:24:30.899Z,56.50
2017-04-30T07:27:11.798Z,57.20
2017-04-30T07:29:52.605Z,56.50
2017-04-30T07:32:33.324Z,56.40
2017-04-30T07:35:14.857Z,56.90
2017-04-30T07:37:55.581Z,57.40
2017-04-30T07:40:36.952Z,57.50
2017-04-30T07:43:05.862Z,58.30
2017-04-30T07:45:34.745Z,56.90
2017-04-30T07:48:03.657Z,56.30
2017-04-30T07:50:32.558Z,57.00
2017-04-30T07:53:01.438Z,57.60
2017-04-30T07:55:30.465Z,57.20
2017-04-30T07:57:59.349Z,56.70
2017-04-30T08:00:28.245Z,56.00
2017-04-30T08:02:57.269Z,55.90
2017-04-30T08:05:26.906Z,53.20
2017-04-30T08:07:55.801Z,53.30
2017-04-30T08:10:24.819Z,53.80
2017-04-30T08:12:53.696Z,53.70
2017-04-30T08:15:22.586Z,53.30
2017-04-30T08:17:51.512Z,52.90
2017-04-30T08:20:20.389Z,52.90
2017-04-30T08:22:49.325Z,50.70
2017-04-30T08:25:18.289Z,49.80
2017-04-30T08:27:47.176Z,49.40
2017-04-30T08:30:16.098Z,49.40
2017-04-30T08:32:45.729Z,52.50
2017-04-30T08:35:14.608Z,51.70
2017-04-30T08:37:44.369Z,52.10
2017-04-30T08:40:13.989Z,51.90
2017-04-30T08:42:42.874Z,46.40
2017-04-30T08:45:12.062Z,48.80
2017-04-30T08:47:40.942Z,47.10
2017-04-30T08:50:09.849Z,45.90
2017-04-30T08:52:39.033Z,46.30
2017-04-30T08:55:07.914Z,46.60
2017-04-30T08:57:36.797Z,48.30
2017-04-30T09:00:05.712Z,48.00
2017-04-30T09:02:34.594Z,47.10
2017-04-30T09:05:03.473Z,47.00
2017-04-30T09:07:32.394Z,47.50
2017-04-30T09:10:01.277Z,47.60
2017-04-30T09:12:30.164Z,52.40
2017-04-30T09:14:59.072Z,49.90
2017-04-30T09:17:27.964Z,49.00
2017-04-30T09:19:56.841Z,47.00
2017-04-30T09:22:26.027Z,50.00
2017-04-30T09:24:54.905Z,45.90
2017-04-30T09:27:23.785Z,45.70
2017-04-30T09:29:52.697Z,45.20
2017-04-30T09:32:21.578Z,44.20
2017-04-30T09:34:50.465Z,44.60
2017-04-30T09:37:19.401Z,50.70
2017-04-30T09:39:48.281Z,44.00
2017-04-30T09:42:17.164Z,45.10
2017-04-30T09:44:46.094Z,44.10
2017-04-30T09:47:15.717Z,43.00
2017-04-30T09:49:45.336Z,43.40
2017-04-30T09:52:14.552Z,42.20
2017-04-30T09:54:43.432Z,41.20
2017-04-30T09:57:12.314Z,43.20
2017-04-30T09:59:41.529Z,41.40
2017-04-30T10:02:10.436Z,42.10
2017-04-30T10:04:39.310Z,42.70
2017-04-30T10:07:08.225Z,40.60
2017-04-30T10:09:37.100Z,40.80
2017-04-30T10:12:05.979Z,42.30
2017-04-30T10:14:35.022Z,40.70
2017-04-30T10:17:03.913Z,39.70
2017-04-30T10:19:32.794Z,41.00
2017-04-30T10:22:01.706Z,39.60
2017-04-30T10:24:31.323Z,39.00
2017-04-30T10:27:00.935Z,36.90
2017-04-30T10:29:30.602Z,36.90
2017-04-30T10:31:59.473Z,36.80
2017-04-30T10:34:29.090Z,36.80
2017-04-30T10:36:58.012Z,36.90
2017-04-30T10:39:26.895Z,35.20
2017-04-30T10:41:55.765Z,36.10
2017-04-30T10:44:24.676Z,37.60
2017-04-30T10:46:53.554Z,35.30
2017-04-30T10:49:22.425Z,34.40
2017-04-30T10:51:51.340Z,33.30
2017-04-30T10:54:20.208Z,33.90
2017-04-30T10:56:49.081Z,33.20
2017-04-30T10:59:17.996Z,33.20
2017-04-30T11:01:46.870Z,34.90
2017-04-30T11:04:15.743Z,32.60
2017-04-30T11:06:44.743Z,31.20
2017-04-30T11:09:13.616Z,32.70
2017-04-30T11:11:43.238Z,30.00
2017-04-30T11:14:12.548Z,31.70
2017-04-30T11:16:42.158Z,30.70
2017-04-30T11:19:11.029Z,31.30
2017-04-30T11:21:40.029Z,33.90
2017-04-30T11:24:08.902Z,31.70
2017-04-30T11:26:38.515Z,30.10
2017-04-30T11:29:07.637Z,32.80
2017-04-30T11:31:36.508Z,30.80
2017-04-30T11:34:05.381Z,30.50
2017-04-30T11:36:35.333Z,29.80
2017-04-30T11:39:04.206Z,29.60
2017-04-30T11:41:33.087Z,34.90
2017-04-30T11:44:03.028Z,31.10
2017-04-30T11:46:31.906Z,32.70
2017-04-30T11:49:00.784Z,34.90
2017-04-30T11:51:30.014Z,32.90
2017-04-30T11:53:58.890Z,33.00
2017-04-30T11:56:27.761Z,32.40
2017-04-30T11:58:57.709Z,29.20
2017-04-30T12:01:26.582Z,28.60
2017-04-30T12:03:55.466Z,28.50
2017-04-30T12:06:24.373Z,27.60
2017-04-30T12:08:53.245Z,26.20
2017-04-30T12:11:22.117Z,25.70
2017-04-30T12:13:51.757Z,26.90
2017-04-30T12:16:21.068Z,27.20
2017-04-30T12:18:49.945Z,28.40
2017-04-30T12:21:18.829Z,28.10
2017-04-30T12:23:47.738Z,28.50
2017-04-30T12:26:16.610Z,30.50
2017-04-30T12:28:45.489Z,25.60
2017-04-30T12:31:14.713Z,23.40
2017-04-30T12:33:43.591Z,22.70
2017-04-30T12:36:12.466Z,18.10
2017-04-30T12:38:42.211Z,19.60
2017-04-30T12:41:11.084Z,20.20
2017-04-30T12:43:39.953Z,23.60
2017-04-30T12:46:09.705Z,25.50
2017-04-30T12:48:38.586Z,26.80
2017-04-30T12:51:07.456Z,27.10
2017-04-30T12:53:36.370Z,30.20
2017-04-30T12:56:05.237Z,30.80
2017-04-30T12:58:34.120Z,31.50
2017-04-30T13:01:03.978Z,30.10
2017-04-30T13:03:32.856Z,29.80
2017-04-30T13:06:01.734Z,31.40
2017-04-30T13:08:30.640Z,32.20
2017-04-30T13:10:59.530Z,34.00
2017-04-30T13:13:28.394Z,34.30
2017-04-30T13:15:57.308Z,34.50
2017-04-30T13:18:26.183Z,33.10
2017-04-30T13:20:55.061Z,32.80
2017-04-30T13:23:24.714Z,32.00
2017-04-30T13:25:53.589Z,31.10
2017-04-30T13:28:22.466Z,32.00
2017-04-30T13:30:51.370Z,30.40
2017-04-30T13:33:20.244Z,29.70
2017-04-30T13:35:49.349Z,28.00
2017-04-30T13:38:18.225Z,27.10
2017-04-30T13:40:47.098Z,24.90
2017-04-30T13:43:16.846Z,21.50
2017-04-30T13:45:45.721Z,21.50
2017-04-30T13:48:14.594Z,21.00
2017-04-30T13:50:44.538Z,18.20
2017-04-30T13:53:13.424Z,20.50
2017-04-30T13:55:42.306Z,17.60
2017-04-30T13:58:11.209Z,17.60
2017-04-30T14:00:40.085Z,17.20
2017-04-30T14:03:08.971Z,15.80
2017-04-30T14:05:38.193Z,16.60
2017-04-30T14:08:07.064Z,16.60
2017-04-30T14:10:35.945Z,16.80
2017-04-30T14:13:05.595Z,16.70
2017-04-30T14:15:34.474Z,16.30
2017-04-30T14:18:03.348Z,16.70
2017-04-30T14:20:32.261Z,18.90
2017-04-30T14:23:01.132Z,19.90
2017-04-30T14:25:30.013Z,18.10
2017-04-30T14:27:59.230Z,16.70
2017-04-30T14:30:28.108Z,18.70
2017-04-30T14:32:56.986Z,18.00
2017-04-30T14:35:26.642Z,17.90
2017-04-30T14:37:55.518Z,16.60
2017-04-30T14:40:24.399Z,15.80
2017-04-30T14:42:53.325Z,16.10
2017-04-30T14:45:22.283Z,17.20
2017-04-30T14:47:51.151Z,17.00
2017-04-30T14:50:20.802Z,15.70
2017-04-30T14:52:49.676Z,17.00
2017-04-30T14:55:18.561Z,19.10
2017-04-30T14:57:47.473Z,20.90
2017-04-30T15:00:16.346Z,22.70
2017-04-30T15:02:45.242Z,22.80
2017-04-30T15:05:14.438Z,23.10
2017-04-30T15:07:43.310Z,25.00
2017-04-30T15:10:12.185Z,25.10
2017-04-30T15:12:41.105Z,26.40
2017-04-30T15:15:09.978Z,26.20
2017-04-30T15:17:38.852Z,25.80
2017-04-30T15:20:08.822Z,25.50
2017-04-30T15:22:37.667Z,26.00
2017-04-30T15:25:05.776Z,26.50
2017-04-30T15:27:34.903Z,27.50
2017-04-30T15:30:03.779Z,27.30
2017-04-30T15:32:32.651Z,28.90
2017-04-30T15:35:01.559Z,28.40
2017-04-30T15:37:30.436Z,29.80
2017-04-30T15:39:59.310Z,28.80
2017-04-30T15:42:28.221Z,29.60
2017-04-30T15:44:57.107Z,30.00
2017-04-30T15:47:25.979Z,31.50
2017-04-30T15:49:54.875Z,32.50
2017-04-30T15:52:23.747Z,32.80
2017-04-30T15:54:52.623Z,32.70
2017-04-30T15:57:22.282Z,30.30
2017-04-30T15:59:51.151Z,30.10
2017-04-30T16:02:20.020Z,30.10
2017-04-30T16:04:48.941Z,31.10
2017-04-30T16:07:17.823Z,29.80
2017-04-30T16:09:46.685Z,33.00
2017-04-30T16:12:16.630Z,31.20
2017-04-30T16:14:45.513Z,31.70
2017-04-30T16:17:14.388Z,32.60
2017-04-30T16:19:43.284Z,32.00
2017-04-30T16:22:12.157Z,32.80
2017-04-30T16:24:41.900Z,32.60
2017-04-30T16:27:10.772Z,31.60
2017-04-30T16:29:39.644Z,33.10
2017-04-30T16:32:09.292Z,31.00
2017-04-30T16:34:38.173Z,32.50
2017-04-30T16:37:07.048Z,32.30
2017-04-30T16:39:36.190Z,32.10
2017-04-30T16:42:05.058Z,31.60
2017-04-30T16:44:33.930Z,32.50
2017-04-30T16:47:02.821Z,33.80
2017-04-30T16:49:31.697Z,32.80
2017-04-30T16:52:01.644Z,34.70
2017-04-30T16:54:30.536Z,34.90
2017-04-30T16:56:59.410Z,33.90
2017-04-30T16:59:28.321Z,34.20
2017-04-30T17:01:57.197Z,33.90
2017-04-30T17:04:26.078Z,34.60
2017-04-30T17:06:55.196Z,35.50
2017-04-30T17:09:24.069Z,34.80
2017-04-30T17:11:52.944Z,35.80
2017-04-30T17:14:22.888Z,36.10
2017-04-30T17:16:51.757Z,36.20
2017-04-30T17:19:20.630Z,36.80
2017-04-30T17:21:50.285Z,36.70
2017-04-30T17:24:19.170Z,36.90
2017-04-30T17:26:48.044Z,37.20
2017-04-30T17:29:17.051Z,37.60
2017-04-30T17:31:45.925Z,37.80
2017-04-30T17:34:14.805Z,38.30
2017-04-30T17:36:44.752Z,39.30
2017-04-30T17:39:13.629Z,39.40
2017-04-30T17:41:42.504Z,40.00
2017-04-30T17:44:11.569Z,40.70
2017-04-30T17:46:40.449Z,41.90
2017-04-30T17:49:09.330Z,40.70
2017-04-30T17:51:38.245Z,41.50
2017-04-30T17:54:07.130Z,42.30
2017-04-30T17:56:36.005Z,43.40
2017-04-30T17:59:04.904Z,44.60
2017-04-30T18:01:33.804Z,45.20
2017-04-30T18:04:03.059Z,45.90
2017-04-30T18:06:31.943Z,47.60
2017-04-30T18:09:00.812Z,48.00
2017-04-30T18:11:29.729Z,48.70
2017-04-30T18:13:58.608Z,48.90
2017-04-30T18:16:27.492Z,50.00
2017-04-30T18:18:56.653Z,50.20
2017-04-30T18:21:25.530Z,51.30
2017-04-30T18:23:54.418Z,51.10
2017-04-30T18:26:23.345Z,51.80
2017-04-30T18:28:52.978Z,52.80
2017-04-30T18:31:21.856Z,52.90
2017-04-30T18:33:50.791Z,53.10
2017-04-30T18:36:19.674Z,53.50
2017-04-30T18:38:48.551Z,53.40
2017-04-30T18:41:17.502Z,54.40
2017-04-30T18:43:47.135Z,55.20
2017-04-30T18:46:16.017Z,55.40
2017-04-30T18:48:44.945Z,55.90
2017-04-30T18:51:13.833Z,56.10
2017-04-30T18:53:42.722Z,56.60
2017-04-30T18:56:11.825Z,56.50
2017-04-30T18:58:40.717Z,56.30
2017-04-30T19:01:09.610Z,57.00
2017-04-30T19:03:38.928Z,57.30
2017-04-30T19:06:07.814Z,56.70
2017-04-30T19:08:36.682Z,56.30
2017-04-30T19:11:05.597Z,57.20
2017-04-30T19:13:34.481Z,58.50
2017-04-30T19:16:03.363Z,57.80
2017-04-30T19:18:32.302Z,57.50
2017-04-30T19:21:01.933Z,57.60
2017-04-30T19:23:30.831Z,58.90
2017-04-30T19:25:59.840Z,59.60
2017-04-30T19:28:28.730Z,60.10
2017-04-30T19:30:57.617Z,60.20
2017-04-30T19:33:26.817Z,60.60
2017-04-30T19:35:55.716Z,61.90
2017-04-30T19:38:24.609Z,61.90
2017-04-30T19:40:53.544Z,60.90
2017-04-30T19:43:22.502Z,60.10
2017-04-30T19:45:51.401Z,59.40
2017-04-30T19:48:20.361Z,60.30
2017-04-30T19:50:49.269Z,59.70
2017-04-30T19:53:18.171Z,59.40
2017-04-30T19:55:47.092Z,59.80
2017-04-30T19:58:16.717Z,59.00
2017-04-30T20:00:45.604Z,59.30
2017-04-30T20:03:14.537Z,60.20
2017-04-30T20:05:43.421Z,60.40
2017-04-30T20:08:12.309Z,59.80
2017-04-30T20:10:41.232Z,60.30
2017-04-30T20:13:10.122Z,60.00
2017-04-30T20:15:39.008Z,58.90
2017-04-30T20:18:08.022Z,61.50
2017-04-30T20:20:37.648Z,60.80
2017-04-30T20:23:06.547Z,60.80
2017-04-30T20:25:35.472Z,58.90
2017-04-30T20:28:04.373Z,58.90
2017-04-30T20:30:33.259Z,58.80
2017-04-30T20:33:02.279Z,58.40
2017-04-30T20:35:31.165Z,59.40
2017-04-30T20:38:00.048Z,59.10
2017-04-30T20:40:28.979Z,58.80
2017-04-30T20:42:57.868Z,59.70
2017-04-30T20:45:27.500Z,59.90
2017-04-30T20:47:56.810Z,59.90
2017-04-30T20:50:25.694Z,59.90
2017-04-30T20:52:54.586Z,61.10
2017-04-30T20:55:23.780Z,61.90
2017-04-30T20:57:52.676Z,62.40
2017-04-30T21:00:21.591Z,62.10
2017-04-30T21:02:50.503Z,63.00
2017-04-30T21:05:19.388Z,62.80
2017-04-30T21:07:48.314Z,63.00
2017-04-30T21:10:17.192Z,63.40
2017-04-30T21:12:46.818Z,64.30
2017-04-30T21:15:15.736Z,64.50
2017-04-30T21:17:44.653Z,64.10
2017-04-30T21:20:13.532Z,61.20
2017-04-30T21:22:42.449Z,61.90
2017-04-30T21:25:11.331Z,60.80
2017-04-30T21:27:40.215Z,59.40
2017-04-30T21:30:09.137Z,59.30
2017-04-30T21:32:38.043Z,61.40
2017-04-30T21:35:06.925Z,62.40
2017-04-30T21:37:35.850Z,62.40
2017-04-30T21:40:04.734Z,62.90
2017-04-30T21:42:33.612Z,64.80
2017-04-30T21:45:02.625Z,64.70
2017-04-30T21:47:31.513Z,65.30
2017-04-30T21:50:00.393Z,66.20
2017-04-30T21:52:29.433Z,64.90
2017-04-30T21:54:58.314Z,65.70
2017-04-30T21:57:27.198Z,66.10
2017-04-30T21:59:56.121Z,64.60
2017-04-30T22:02:25.752Z,63.70
2017-04-30T22:04:54.640Z,64.40
2017-04-30T22:07:23.650Z,65.50
2017-04-30T22:09:52.533Z,66.20
2017-04-30T22:12:21.421Z,66.60
2017-04-30T22:14:50.341Z,67.20
2017-04-30T22:17:19.230Z,66.70
2017-04-30T22:19:48.118Z,66.10
2017-04-30T22:22:17.034Z,67.70
2017-04-30T22:24:45.917Z,67.50
2017-04-30T22:27:14.843Z,67.50
2017-04-30T22:29:44.472Z,67.20
2017-04-30T22:32:13.369Z,67.10
2017-04-30T22:34:42.281Z,67.10
2017-04-30T22:37:11.170Z,66.80
2017-04-30T22:39:40.056Z,66.10
2017-04-30T22:42:09.070Z,66.00
2017-04-30T22:44:37.960Z,66.30
2017-04-30T22:47:06.845Z,65.80
2017-04-30T22:49:35.766Z,66.40
2017-04-30T22:52:04.662Z,67.00
2017-04-30T22:54:34.290Z,67.40
2017-04-30T22:57:03.210Z,67.10
2017-04-30T22:59:32.098Z,67.00
2017-04-30T23:02:00.977Z,66.60
2017-04-30T23:04:29.900Z,66.80
2017-04-30T23:06:58.786Z,67.40
2017-04-30T23:09:27.686Z,67.60
2017-04-30T23:11:56.598Z,67.90
2017-04-30T23:14:25.490Z,68.00
2017-04-30T23:16:54.439Z,68.30
2017-04-30T23:19:23.353Z,68.10
2017-04-30T23:21:52.237Z,68.50
2017-04-30T23:24:21.129Z,67.50
2017-04-30T23:26:50.148Z,67.80
2017-04-30T23:29:19.024Z,68.60
2017-04-30T23:31:47.905Z,67.80
2017-04-30T23:34:16.821Z,67.70
2017-04-30T23:36:45.973Z,67.00
2017-04-30T23:39:14.862Z,67.80
2017-04-30T23:41:43.741Z,68.60
2017-04-30T23:44:12.756Z,68.20
2017-04-30T23:46:41.637Z,67.60
2017-04-30T23:49:10.522Z,67.60
2017-04-30T23:51:39.437Z,67.80
2017-04-30T23:54:08.392Z,67.40
2017-04-30T23:56:37.283Z,68.00
2017-04-30T23:59:06.197Z,68.80
